sensor_id;sensor_type;location;lat;lon;timestamp;P1;durP1;ratioP1;P2;durP2;ratioP2
77802;SDS011;66993;48.256;16.422;2023-05-24T00:03:36;7.9;;;6.1;;
77802;SDS011;66993;48.256;16.422;2023-05-24T00:08:37;6.8;;;5.1;;
77802;SDS011;66993;48.256;16.422;2023-05-24T00:13:38;6.8;;;4.9;;
77802;SDS011;66993;48.256;16.422;2023-05-24T00:18:39;7.2;;;4.6;;
77802;SDS011;66993;48.256;16.422;2023-05-24T00:23:41;6.6;;;4.8;;
77802;SDS011;66993;48.256;16.422;2023-05-24T00:28:42;6.5;;;5.0;;
77802;SDS011;66993;48.256;16.422;2023-05-24T00:33:43;8.0;;;4.8;;
77802;SDS011;66993;48.256;16.422;2023-05-24T00:38:44;7.5;;;5.0;;
77802;SDS011;66993;48.256;16.422;2023-05-24T00:43:45;6.4;;;4.3;;
77802;SDS011;66993;48.256;16.422;2023-05-24T00:48:47;5.5;;;4.2;;
77802;SDS011;66993;48.256;16.422;2023-05-24T00:53:48;6.4;;;4.4;;
77802;SDS011;66993;48.256;16.422;2023-05-24T00:58:49;5.4;;;4.0;;
77802;SDS011;66993;48.256;16.422;2023-05-24T01:03:51;6.3;;;4.5;;
77802;SDS011;66993;48.256;16.422;2023-05-24T01:08:56;5.5;;;3.9;;
77802;SDS011;66993;48.256;16.422;2023-05-24T01:13:58;5.3;;;3.6;;
77802;SDS011;66993;48.256;16.422;2023-05-24T01:18:55;5.5;;;4.4;;
77802;SDS011;66993;48.256;16.422;2023-05-24T01:23:57;6.3;;;3.9;;
77802;SDS011;66993;48.256;16.422;2023-05-24T01:28:57;6.4;;;4.5;;
77802;SDS011;66993;48.256;16.422;2023-05-24T01:33:58;5.4;;;4.0;;
77802;SDS011;66993;48.256;16.422;2023-05-24T01:38:59;5.7;;;4.3;;
77802;SDS011;66993;48.256;16.422;2023-05-24T01:44:03;7.1;;;4.9;;
77802;SDS011;66993;48.256;16.422;2023-05-24T01:49:05;6.3;;;4.9;;
77802;SDS011;66993;48.256;16.422;2023-05-24T01:54:03;6.7;;;5.0;;
77802;SDS011;66993;48.256;16.422;2023-05-24T01:59:04;7.4;;;5.4;;
77802;SDS011;66993;48.256;16.422;2023-05-24T02:04:05;9.3;;;5.3;;
77802;SDS011;66993;48.256;16.422;2023-05-24T02:09:07;7.0;;;5.8;;
77802;SDS011;66993;48.256;16.422;2023-05-24T02:14:08;8.2;;;5.0;;
77802;SDS011;66993;48.256;16.422;2023-05-24T02:19:09;7.4;;;5.4;;
77802;SDS011;66993;48.256;16.422;2023-05-24T02:24:10;8.2;;;5.4;;
77802;SDS011;66993;48.256;16.422;2023-05-24T02:29:12;7.3;;;5.3;;
77802;SDS011;66993;48.256;16.422;2023-05-24T02:34:13;8.5;;;5.8;;
77802;SDS011;66993;48.256;16.422;2023-05-24T02:39:14;6.7;;;5.1;;
77802;SDS011;66993;48.256;16.422;2023-05-24T02:44:15;8.8;;;6.1;;
77802;SDS011;66993;48.256;16.422;2023-05-24T02:49:17;7.8;;;5.9;;
77802;SDS011;66993;48.256;16.422;2023-05-24T02:54:18;8.8;;;5.5;;
77802;SDS011;66993;48.256;16.422;2023-05-24T02:59:19;7.9;;;5.8;;
77802;SDS011;66993;48.256;16.422;2023-05-24T03:04:20;9.5;;;6.1;;
77802;SDS011;66993;48.256;16.422;2023-05-24T03:09:22;8.4;;;6.1;;
77802;SDS011;66993;48.256;16.422;2023-05-24T03:14:23;7.7;;;5.1;;
77802;SDS011;66993;48.256;16.422;2023-05-24T03:19:24;9.7;;;5.5;;
77802;SDS011;66993;48.256;16.422;2023-05-24T03:24:25;7.9;;;5.4;;
77802;SDS011;66993;48.256;16.422;2023-05-24T03:29:27;6.9;;;5.4;;
77802;SDS011;66993;48.256;16.422;2023-05-24T03:34:28;7.9;;;5.8;;
77802;SDS011;66993;48.256;16.422;2023-05-24T03:39:29;7.7;;;5.2;;
77802;SDS011;66993;48.256;16.422;2023-05-24T03:44:31;7.4;;;5.2;;
77802;SDS011;66993;48.256;16.422;2023-05-24T03:49:32;9.0;;;5.9;;
77802;SDS011;66993;48.256;16.422;2023-05-24T03:54:33;7.9;;;5.2;;
77802;SDS011;66993;48.256;16.422;2023-05-24T03:59:34;7.5;;;6.0;;
77802;SDS011;66993;48.256;16.422;2023-05-24T04:04:36;7.9;;;5.0;;
77802;SDS011;66993;48.256;16.422;2023-05-24T04:09:37;7.0;;;5.1;;
77802;SDS011;66993;48.256;16.422;2023-05-24T04:14:39;7.2;;;5.5;;
77802;SDS011;66993;48.256;16.422;2023-05-24T04:19:39;10.0;;;5.5;;
77802;SDS011;66993;48.256;16.422;2023-05-24T04:24:41;10.3;;;5.7;;
77802;SDS011;66993;48.256;16.422;2023-05-24T04:29:43;7.7;;;5.4;;
77802;SDS011;66993;48.256;16.422;2023-05-24T04:34:43;7.8;;;5.2;;
77802;SDS011;66993;48.256;16.422;2023-05-24T04:39:44;7.8;;;5.9;;
77802;SDS011;66993;48.256;16.422;2023-05-24T04:44:46;7.3;;;5.0;;
77802;SDS011;66993;48.256;16.422;2023-05-24T04:49:47;7.6;;;5.9;;
77802;SDS011;66993;48.256;16.422;2023-05-24T04:54:48;6.7;;;5.3;;
77802;SDS011;66993;48.256;16.422;2023-05-24T04:59:49;6.9;;;5.5;;
77802;SDS011;66993;48.256;16.422;2023-05-24T05:04:51;6.8;;;5.5;;
77802;SDS011;66993;48.256;16.422;2023-05-24T05:09:52;7.9;;;5.4;;
77802;SDS011;66993;48.256;16.422;2023-05-24T05:14:53;7.3;;;5.6;;
77802;SDS011;66993;48.256;16.422;2023-05-24T05:19:55;6.8;;;5.0;;
77802;SDS011;66993;48.256;16.422;2023-05-24T05:24:56;5.1;;;4.2;;
77802;SDS011;66993;48.256;16.422;2023-05-24T05:29:57;5.3;;;4.1;;
77802;SDS011;66993;48.256;16.422;2023-05-24T05:34:58;4.4;;;3.7;;
77802;SDS011;66993;48.256;16.422;2023-05-24T05:39:59;5.4;;;3.7;;
77802;SDS011;66993;48.256;16.422;2023-05-24T05:45:01;3.8;;;3.2;;
77802;SDS011;66993;48.256;16.422;2023-05-24T05:50:02;3.9;;;2.4;;
77802;SDS011;66993;48.256;16.422;2023-05-24T05:55:04;4.0;;;3.0;;
77802;SDS011;66993;48.256;16.422;2023-05-24T06:00:05;4.0;;;2.8;;
77802;SDS011;66993;48.256;16.422;2023-05-24T06:05:06;4.0;;;3.0;;
77802;SDS011;66993;48.256;16.422;2023-05-24T06:10:07;3.5;;;2.6;;
77802;SDS011;66993;48.256;16.422;2023-05-24T06:15:08;3.3;;;2.2;;
77802;SDS011;66993;48.256;16.422;2023-05-24T06:20:10;3.0;;;2.3;;
77802;SDS011;66993;48.256;16.422;2023-05-24T06:25:11;3.5;;;2.4;;
77802;SDS011;66993;48.256;16.422;2023-05-24T06:30:12;4.0;;;2.5;;
77802;SDS011;66993;48.256;16.422;2023-05-24T06:35:13;4.4;;;2.7;;
77802;SDS011;66993;48.256;16.422;2023-05-24T06:40:15;3.9;;;2.2;;
77802;SDS011;66993;48.256;16.422;2023-05-24T06:45:16;4.1;;;2.6;;
77802;SDS011;66993;48.256;16.422;2023-05-24T06:50:18;3.5;;;2.0;;
77802;SDS011;66993;48.256;16.422;2023-05-24T06:55:19;3.8;;;2.5;;
77802;SDS011;66993;48.256;16.422;2023-05-24T07:00:20;3.3;;;2.2;;
77802;SDS011;66993;48.256;16.422;2023-05-24T07:05:21;3.9;;;2.2;;
77802;SDS011;66993;48.256;16.422;2023-05-24T07:10:22;4.3;;;2.6;;
77802;SDS011;66993;48.256;16.422;2023-05-24T07:15:23;3.0;;;2.5;;
77802;SDS011;66993;48.256;16.422;2023-05-24T07:20:25;3.5;;;2.5;;
77802;SDS011;66993;48.256;16.422;2023-05-24T07:25:26;3.5;;;2.5;;
77802;SDS011;66993;48.256;16.422;2023-05-24T07:30:27;4.6;;;2.5;;
77802;SDS011;66993;48.256;16.422;2023-05-24T07:35:28;3.7;;;2.7;;
77802;SDS011;66993;48.256;16.422;2023-05-24T07:40:30;4.4;;;2.7;;
77802;SDS011;66993;48.256;16.422;2023-05-24T07:45:31;3.6;;;3.1;;
77802;SDS011;66993;48.256;16.422;2023-05-24T07:50:32;3.8;;;2.9;;
77802;SDS011;66993;48.256;16.422;2023-05-24T07:55:33;5.2;;;2.6;;
77802;SDS011;66993;48.256;16.422;2023-05-24T08:00:35;3.8;;;2.9;;
77802;SDS011;66993;48.256;16.422;2023-05-24T08:05:36;3.6;;;2.5;;
77802;SDS011;66993;48.256;16.422;2023-05-24T08:10:37;4.6;;;2.9;;
77802;SDS011;66993;48.256;16.422;2023-05-24T08:15:38;4.5;;;2.2;;
77802;SDS011;66993;48.256;16.422;2023-05-24T08:20:39;4.2;;;2.0;;
77802;SDS011;66993;48.256;16.422;2023-05-24T08:25:41;4.1;;;2.8;;
77802;SDS011;66993;48.256;16.422;2023-05-24T08:30:42;4.2;;;2.6;;
77802;SDS011;66993;48.256;16.422;2023-05-24T08:35:43;3.5;;;2.7;;
77802;SDS011;66993;48.256;16.422;2023-05-24T08:40:46;3.7;;;2.6;;
77802;SDS011;66993;48.256;16.422;2023-05-24T08:45:45;3.3;;;2.2;;
77802;SDS011;66993;48.256;16.422;2023-05-24T08:50:48;4.3;;;2.7;;
77802;SDS011;66993;48.256;16.422;2023-05-24T08:55:48;5.4;;;2.4;;
77802;SDS011;66993;48.256;16.422;2023-05-24T09:00:49;4.4;;;2.7;;
77802;SDS011;66993;48.256;16.422;2023-05-24T09:05:50;3.1;;;2.2;;
77802;SDS011;66993;48.256;16.422;2023-05-24T09:10:52;4.7;;;2.1;;
77802;SDS011;66993;48.256;16.422;2023-05-24T09:15:53;3.4;;;2.2;;
77802;SDS011;66993;48.256;16.422;2023-05-24T09:20:55;4.5;;;2.3;;
77802;SDS011;66993;48.256;16.422;2023-05-24T09:25:55;3.8;;;2.1;;
77802;SDS011;66993;48.256;16.422;2023-05-24T09:30:58;3.2;;;1.6;;
77802;SDS011;66993;48.256;16.422;2023-05-24T09:35:58;4.4;;;2.0;;
77802;SDS011;66993;48.256;16.422;2023-05-24T09:41:00;3.7;;;2.2;;
77802;SDS011;66993;48.256;16.422;2023-05-24T09:46:01;3.7;;;1.8;;
77802;SDS011;66993;48.256;16.422;2023-05-24T09:51:03;4.6;;;2.1;;
77802;SDS011;66993;48.256;16.422;2023-05-24T09:56:03;4.9;;;2.4;;
77802;SDS011;66993;48.256;16.422;2023-05-24T10:01:04;5.9;;;2.2;;
77802;SDS011;66993;48.256;16.422;2023-05-24T10:06:05;4.8;;;2.6;;
77802;SDS011;66993;48.256;16.422;2023-05-24T10:11:07;5.4;;;3.1;;
77802;SDS011;66993;48.256;16.422;2023-05-24T10:16:08;5.6;;;2.7;;
77802;SDS011;66993;48.256;16.422;2023-05-24T10:21:09;5.7;;;2.5;;
77802;SDS011;66993;48.256;16.422;2023-05-24T10:26:10;4.2;;;2.3;;
77802;SDS011;66993;48.256;16.422;2023-05-24T10:31:13;5.4;;;3.1;;
77802;SDS011;66993;48.256;16.422;2023-05-24T10:36:13;7.7;;;3.0;;
77802;SDS011;66993;48.256;16.422;2023-05-24T10:41:14;6.7;;;3.1;;
77802;SDS011;66993;48.256;16.422;2023-05-24T10:46:15;6.6;;;3.1;;
77802;SDS011;66993;48.256;16.422;2023-05-24T10:51:29;6.5;;;3.3;;
77802;SDS011;66993;48.256;16.422;2023-05-24T10:56:18;6.2;;;3.2;;
77802;SDS011;66993;48.256;16.422;2023-05-24T11:01:23;6.8;;;2.9;;
77802;SDS011;66993;48.256;16.422;2023-05-24T11:06:24;6.6;;;3.2;;
77802;SDS011;66993;48.256;16.422;2023-05-24T11:11:25;4.6;;;2.9;;
77802;SDS011;66993;48.256;16.422;2023-05-24T11:16:32;4.9;;;2.5;;
77802;SDS011;66993;48.256;16.422;2023-05-24T11:21:24;7.0;;;2.8;;
77802;SDS011;66993;48.256;16.422;2023-05-24T11:26:25;4.8;;;2.6;;
77802;SDS011;66993;48.256;16.422;2023-05-24T11:31:26;5.3;;;2.9;;
77802;SDS011;66993;48.256;16.422;2023-05-24T11:36:28;5.7;;;3.0;;
77802;SDS011;66993;48.256;16.422;2023-05-24T11:41:29;7.7;;;2.8;;
77802;SDS011;66993;48.256;16.422;2023-05-24T11:46:30;5.5;;;2.5;;
77802;SDS011;66993;48.256;16.422;2023-05-24T11:51:32;5.0;;;2.4;;
77802;SDS011;66993;48.256;16.422;2023-05-24T11:56:33;4.9;;;2.5;;
77802;SDS011;66993;48.256;16.422;2023-05-24T12:01:34;6.2;;;2.4;;
77802;SDS011;66993;48.256;16.422;2023-05-24T12:06:36;6.1;;;2.2;;
77802;SDS011;66993;48.256;16.422;2023-05-24T12:11:37;4.6;;;2.4;;
77802;SDS011;66993;48.256;16.422;2023-05-24T12:16:40;6.7;;;2.9;;
77802;SDS011;66993;48.256;16.422;2023-05-24T12:21:40;5.2;;;2.5;;
77802;SDS011;66993;48.256;16.422;2023-05-24T12:26:41;5.9;;;2.7;;
77802;SDS011;66993;48.256;16.422;2023-05-24T12:31:43;6.9;;;2.6;;
77802;SDS011;66993;48.256;16.422;2023-05-24T12:36:43;6.2;;;2.3;;
77802;SDS011;66993;48.256;16.422;2023-05-24T12:41:44;5.3;;;2.4;;
77802;SDS011;66993;48.256;16.422;2023-05-24T12:46:46;5.1;;;2.3;;
77802;SDS011;66993;48.256;16.422;2023-05-24T12:51:47;6.1;;;2.6;;
77802;SDS011;66993;48.256;16.422;2023-05-24T12:56:48;6.1;;;2.5;;
77802;SDS011;66993;48.256;16.422;2023-05-24T13:01:49;5.4;;;2.5;;
77802;SDS011;66993;48.256;16.422;2023-05-24T13:06:51;5.5;;;2.5;;
77802;SDS011;66993;48.256;16.422;2023-05-24T13:11:51;6.5;;;2.9;;
77802;SDS011;66993;48.256;16.422;2023-05-24T13:16:53;6.4;;;2.3;;
77802;SDS011;66993;48.256;16.422;2023-05-24T13:21:54;6.0;;;2.6;;
77802;SDS011;66993;48.256;16.422;2023-05-24T13:26:55;6.6;;;2.6;;
77802;SDS011;66993;48.256;16.422;2023-05-24T13:31:56;5.4;;;2.6;;
77802;SDS011;66993;48.256;16.422;2023-05-24T13:36:58;6.6;;;2.9;;
77802;SDS011;66993;48.256;16.422;2023-05-24T13:41:59;4.9;;;2.4;;
77802;SDS011;66993;48.256;16.422;2023-05-24T13:47:00;5.5;;;2.2;;
77802;SDS011;66993;48.256;16.422;2023-05-24T13:52:02;5.7;;;2.4;;
77802;SDS011;66993;48.256;16.422;2023-05-24T13:57:04;6.6;;;2.4;;
77802;SDS011;66993;48.256;16.422;2023-05-24T14:02:04;6.7;;;2.7;;
77802;SDS011;66993;48.256;16.422;2023-05-24T14:07:05;7.4;;;2.8;;
77802;SDS011;66993;48.256;16.422;2023-05-24T14:12:07;8.0;;;2.7;;
77802;SDS011;66993;48.256;16.422;2023-05-24T14:17:08;9.1;;;3.7;;
77802;SDS011;66993;48.256;16.422;2023-05-24T14:22:09;6.9;;;2.9;;
77802;SDS011;66993;48.256;16.422;2023-05-24T14:27:11;6.3;;;2.7;;
77802;SDS011;66993;48.256;16.422;2023-05-24T14:32:11;6.3;;;2.9;;
77802;SDS011;66993;48.256;16.422;2023-05-24T14:37:13;5.7;;;2.8;;
77802;SDS011;66993;48.256;16.422;2023-05-24T14:42:14;7.9;;;3.0;;
77802;SDS011;66993;48.256;16.422;2023-05-24T14:47:15;6.8;;;2.8;;
77802;SDS011;66993;48.256;16.422;2023-05-24T14:52:16;7.9;;;2.9;;
77802;SDS011;66993;48.256;16.422;2023-05-24T14:57:18;6.6;;;2.7;;
77802;SDS011;66993;48.256;16.422;2023-05-24T15:02:19;6.5;;;2.8;;
77802;SDS011;66993;48.256;16.422;2023-05-24T15:07:20;8.1;;;2.8;;
77802;SDS011;66993;48.256;16.422;2023-05-24T15:12:21;6.7;;;2.9;;
77802;SDS011;66993;48.256;16.422;2023-05-24T15:17:23;5.8;;;3.0;;
77802;SDS011;66993;48.256;16.422;2023-05-24T15:22:24;5.6;;;2.8;;
77802;SDS011;66993;48.256;16.422;2023-05-24T15:27:26;6.9;;;3.0;;
77802;SDS011;66993;48.256;16.422;2023-05-24T15:32:26;6.9;;;3.3;;
77802;SDS011;66993;48.256;16.422;2023-05-24T15:37:28;7.1;;;3.1;;
77802;SDS011;66993;48.256;16.422;2023-05-24T15:42:29;6.4;;;3.3;;
77802;SDS011;66993;48.256;16.422;2023-05-24T15:47:30;7.3;;;3.1;;
77802;SDS011;66993;48.256;16.422;2023-05-24T15:52:32;9.1;;;3.6;;
77802;SDS011;66993;48.256;16.422;2023-05-24T15:57:33;5.3;;;3.5;;
77802;SDS011;66993;48.256;16.422;2023-05-24T16:02:34;6.8;;;3.5;;
77802;SDS011;66993;48.256;16.422;2023-05-24T16:07:35;7.6;;;3.4;;
77802;SDS011;66993;48.256;16.422;2023-05-24T16:12:36;7.5;;;3.3;;
77802;SDS011;66993;48.256;16.422;2023-05-24T16:17:38;7.4;;;3.3;;
77802;SDS011;66993;48.256;16.422;2023-05-24T16:27:40;6.6;;;3.5;;
77802;SDS011;66993;48.256;16.422;2023-05-24T16:32:41;9.5;;;3.9;;
77802;SDS011;66993;48.256;16.422;2023-05-24T16:37:43;8.8;;;3.6;;
77802;SDS011;66993;48.256;16.422;2023-05-24T16:42:44;8.2;;;3.6;;
77802;SDS011;66993;48.256;16.422;2023-05-24T16:47:45;8.9;;;3.9;;
77802;SDS011;66993;48.256;16.422;2023-05-24T16:52:46;7.7;;;3.7;;
77802;SDS011;66993;48.256;16.422;2023-05-24T16:57:48;6.1;;;3.4;;
77802;SDS011;66993;48.256;16.422;2023-05-24T17:02:49;6.2;;;3.2;;
77802;SDS011;66993;48.256;16.422;2023-05-24T17:07:50;6.9;;;3.6;;
77802;SDS011;66993;48.256;16.422;2023-05-24T17:12:51;8.1;;;3.8;;
77802;SDS011;66993;48.256;16.422;2023-05-24T17:17:53;7.7;;;3.5;;
77802;SDS011;66993;48.256;16.422;2023-05-24T17:22:54;6.9;;;3.6;;
77802;SDS011;66993;48.256;16.422;2023-05-24T17:27:55;7.4;;;3.6;;
77802;SDS011;66993;48.256;16.422;2023-05-24T17:32:57;8.8;;;3.6;;
77802;SDS011;66993;48.256;16.422;2023-05-24T17:37:58;7.9;;;3.6;;
77802;SDS011;66993;48.256;16.422;2023-05-24T17:42:59;7.0;;;3.9;;
77802;SDS011;66993;48.256;16.422;2023-05-24T17:48:01;7.5;;;3.9;;
77802;SDS011;66993;48.256;16.422;2023-05-24T17:53:02;6.7;;;3.7;;
77802;SDS011;66993;48.256;16.422;2023-05-24T17:58:03;8.4;;;4.1;;
77802;SDS011;66993;48.256;16.422;2023-05-24T18:03:04;7.6;;;4.1;;
77802;SDS011;66993;48.256;16.422;2023-05-24T18:08:05;6.1;;;3.9;;
77802;SDS011;66993;48.256;16.422;2023-05-24T18:13:06;7.5;;;4.4;;
77802;SDS011;66993;48.256;16.422;2023-05-24T18:18:08;8.1;;;4.1;;
77802;SDS011;66993;48.256;16.422;2023-05-24T18:23:09;7.5;;;4.4;;
77802;SDS011;66993;48.256;16.422;2023-05-24T18:28:10;6.8;;;4.1;;
77802;SDS011;66993;48.256;16.422;2023-05-24T18:33:11;9.9;;;4.7;;
77802;SDS011;66993;48.256;16.422;2023-05-24T18:38:13;6.9;;;4.2;;
77802;SDS011;66993;48.256;16.422;2023-05-24T18:43:14;8.6;;;4.4;;
77802;SDS011;66993;48.256;16.422;2023-05-24T18:48:15;7.9;;;4.7;;
77802;SDS011;66993;48.256;16.422;2023-05-24T18:53:16;7.9;;;4.7;;
77802;SDS011;66993;48.256;16.422;2023-05-24T18:58:17;8.0;;;4.7;;
77802;SDS011;66993;48.256;16.422;2023-05-24T19:03:19;8.9;;;4.9;;
77802;SDS011;66993;48.256;16.422;2023-05-24T19:08:21;7.8;;;4.9;;
77802;SDS011;66993;48.256;16.422;2023-05-24T19:13:21;8.4;;;4.8;;
77802;SDS011;66993;48.256;16.422;2023-05-24T19:18:23;8.3;;;5.2;;
77802;SDS011;66993;48.256;16.422;2023-05-24T19:23:24;8.2;;;5.3;;
77802;SDS011;66993;48.256;16.422;2023-05-24T19:28:25;9.7;;;6.0;;
77802;SDS011;66993;48.256;16.422;2023-05-24T19:33:26;8.3;;;5.5;;
77802;SDS011;66993;48.256;16.422;2023-05-24T19:38:27;10.3;;;6.3;;
77802;SDS011;66993;48.256;16.422;2023-05-24T19:43:28;11.0;;;6.5;;
77802;SDS011;66993;48.256;16.422;2023-05-24T19:48:30;9.6;;;6.8;;
77802;SDS011;66993;48.256;16.422;2023-05-24T19:53:31;10.4;;;6.2;;
77802;SDS011;66993;48.256;16.422;2023-05-24T19:58:32;9.5;;;6.9;;
77802;SDS011;66993;48.256;16.422;2023-05-24T20:03:33;12.2;;;7.1;;
77802;SDS011;66993;48.256;16.422;2023-05-24T20:08:35;10.0;;;7.4;;
77802;SDS011;66993;48.256;16.422;2023-05-24T20:13:36;11.1;;;7.0;;
77802;SDS011;66993;48.256;16.422;2023-05-24T20:18:37;11.7;;;7.6;;
77802;SDS011;66993;48.256;16.422;2023-05-24T20:23:38;11.3;;;7.3;;
77802;SDS011;66993;48.256;16.422;2023-05-24T20:28:40;10.4;;;7.8;;
77802;SDS011;66993;48.256;16.422;2023-05-24T20:33:41;10.6;;;7.4;;
77802;SDS011;66993;48.256;16.422;2023-05-24T20:38:42;12.9;;;8.1;;
77802;SDS011;66993;48.256;16.422;2023-05-24T20:43:43;13.7;;;8.4;;
77802;SDS011;66993;48.256;16.422;2023-05-24T20:48:44;12.9;;;8.6;;
77802;SDS011;66993;48.256;16.422;2023-05-24T20:53:46;12.1;;;8.0;;
77802;SDS011;66993;48.256;16.422;2023-05-24T20:58:47;14.5;;;8.7;;
77802;SDS011;66993;48.256;16.422;2023-05-24T21:03:48;14.6;;;9.0;;
77802;SDS011;66993;48.256;16.422;2023-05-24T21:08:49;14.5;;;9.3;;
77802;SDS011;66993;48.256;16.422;2023-05-24T21:13:50;14.9;;;8.9;;
77802;SDS011;66993;48.256;16.422;2023-05-24T21:18:52;14.7;;;9.8;;
77802;SDS011;66993;48.256;16.422;2023-05-24T21:23:53;15.3;;;9.6;;
77802;SDS011;66993;48.256;16.422;2023-05-24T21:28:54;18.3;;;10.6;;
77802;SDS011;66993;48.256;16.422;2023-05-24T21:33:55;15.2;;;9.6;;
77802;SDS011;66993;48.256;16.422;2023-05-24T21:38:57;15.4;;;9.4;;
77802;SDS011;66993;48.256;16.422;2023-05-24T21:43:58;15.8;;;10.2;;
77802;SDS011;66993;48.256;16.422;2023-05-24T21:48:59;15.4;;;10.1;;
77802;SDS011;66993;48.256;16.422;2023-05-24T21:54:00;14.9;;;9.9;;
77802;SDS011;66993;48.256;16.422;2023-05-24T21:59:01;14.6;;;9.7;;
77802;SDS011;66993;48.256;16.422;2023-05-24T22:04:03;14.4;;;9.8;;
77802;SDS011;66993;48.256;16.422;2023-05-24T22:09:04;16.3;;;10.1;;
77802;SDS011;66993;48.256;16.422;2023-05-24T22:14:05;16.1;;;9.8;;
77802;SDS011;66993;48.256;16.422;2023-05-24T22:19:09;16.6;;;10.3;;
77802;SDS011;66993;48.256;16.422;2023-05-24T22:24:08;16.4;;;10.1;;
77802;SDS011;66993;48.256;16.422;2023-05-24T22:29:09;14.2;;;9.1;;
77802;SDS011;66993;48.256;16.422;2023-05-24T22:34:10;16.0;;;10.1;;
77802;SDS011;66993;48.256;16.422;2023-05-24T22:39:12;17.6;;;10.5;;
77802;SDS011;66993;48.256;16.422;2023-05-24T22:44:12;16.3;;;9.7;;
77802;SDS011;66993;48.256;16.422;2023-05-24T22:49:14;18.2;;;9.8;;
77802;SDS011;66993;48.256;16.422;2023-05-24T22:54:15;17.2;;;9.7;;
77802;SDS011;66993;48.256;16.422;2023-05-24T22:59:16;17.5;;;9.6;;
77802;SDS011;66993;48.256;16.422;2023-05-24T23:04:17;16.1;;;10.0;;
77802;SDS011;66993;48.256;16.422;2023-05-24T23:09:19;15.6;;;9.9;;
77802;SDS011;66993;48.256;16.422;2023-05-24T23:14:20;15.6;;;9.7;;
77802;SDS011;66993;48.256;16.422;2023-05-24T23:19:21;16.4;;;10.2;;
77802;SDS011;66993;48.256;16.422;2023-05-24T23:24:22;16.7;;;10.6;;
77802;SDS011;66993;48.256;16.422;2023-05-24T23:29:23;16.2;;;9.7;;
77802;SDS011;66993;48.256;16.422;2023-05-24T23:34:24;19.5;;;10.2;;
77802;SDS011;66993;48.256;16.422;2023-05-24T23:39:26;17.5;;;9.9;;
77802;SDS011;66993;48.256;16.422;2023-05-24T23:44:27;16.0;;;9.7;;
77802;SDS011;66993;48.256;16.422;2023-05-24T23:49:28;17.2;;;10.3;;
77802;SDS011;66993;48.256;16.422;2023-05-24T23:54:29;19.9;;;10.4;;
77802;SDS011;66993;48.256;16.422;2023-05-24T23:59:31;14.9;;;9.7;;
